Welcome to Northern Hawkes Bay. New Zealand.
PWS Header
      nz Flag



Hit Counter


W3C Valid W3C Valid logo


    Wairoa

Select any of the Stations below to visit their websites.










Historic Data from Weather Underground
Select the location of interest below. Wairoa is the default. Please have patience, this Data is slow to load in.
Northern Hawkes Bay Historical Data
Daily Summary for August 17, 2017 Units:  Metric    English   Both
« Previous Day
Next Day »
Daily Weekly Monthly Yearly Custom
  High: Low: Average:
Temperature: 19.7 °C 9.0 °C 14.9 °C
Dew Point: 10.5 °C 5.9 °C 7.9 °C
Humidity: 85% 42% 64%
Wind Speed: 24.5km/h 0.0km/h 6.9km/h
Wind Gust: 33.1km/h - -
Wind- - SSW
Pressure: 1014.1 hPa 1006.0 hPa -
Precipitation: 0.0 mm    
Historical Graphs
 
 
Tabular Data for August 17, 2017
Time Temperature Dew Point Pressure Wind Wind Speed Wind Gust Humidity Rainfall Rate (Hourly) solar
00:00 11.5 °C 7.2 °C 1014.1 hPa NNW 3.5 km/h 11.1 km/h 75% 0.0 mm 0 W/m2
00:06 11.4 °C 7.3 °C 1014.1 hPa NNW 3.5 km/h 8.7 km/h 76% 0.0 mm 0 W/m2
00:11 11.1 °C 7.1 °C 1014.1 hPa NW 1.1 km/h 8.7 km/h 76% 0.0 mm 0 W/m2
00:16 10.9 °C 7.2 °C 1014.1 hPa NW 1.1 km/h 5.0 km/h 78% 0.0 mm 0 W/m2
00:21 10.9 °C 7.2 °C 1014.1 hPa North 2.6 km/h 6.1 km/h 78% 0.0 mm 0 W/m2
00:26 10.9 °C 7.4 °C 1014.1 hPa North 3.5 km/h 8.7 km/h 79% 0.0 mm 0 W/m2
00:31 10.9 °C 7.4 °C 1014.1 hPa North 5.0 km/h 8.7 km/h 79% 0.0 mm 0 W/m2
00:36 11.2 °C 7.5 °C 1014.1 hPa North 8.7 km/h 17.2 km/h 78% 0.0 mm 0 W/m2
00:41 11.8 °C 7.7 °C 1013.8 hPa North 7.2 km/h 17.2 km/h 76% 0.0 mm 0 W/m2
00:46 12.2 °C 7.7 °C 1014.1 hPa North 6.1 km/h 14.8 km/h 74% 0.0 mm 0 W/m2
00:51 12.3 °C 7.6 °C 1014.1 hPa NNW 8.7 km/h 13.4 km/h 73% 0.0 mm 0 W/m2
00:56 12.3 °C 7.4 °C 1014.1 hPa NNW 6.1 km/h 11.1 km/h 72% 0.0 mm 0 W/m2
01:01 12.0 °C 7.3 °C 1014.1 hPa NW 6.1 km/h 11.1 km/h 73% 0.0 mm 0 W/m2
01:06 12.0 °C 7.3 °C 1014.1 hPa NW 5.0 km/h 9.7 km/h 73% 0.0 mm 0 W/m2
01:11 11.7 °C 7.2 °C 1014.1 hPa NW 3.5 km/h 8.7 km/h 74% 0.0 mm 0 W/m2
01:16 11.6 °C 7.1 °C 1014.1 hPa Calm   6.1 km/h 74% 0.0 mm 0 W/m2
01:21 11.5 °C 7.1 °C 1013.8 hPa WNW 2.6 km/h 5.0 km/h 74% 0.0 mm 0 W/m2
01:26 11.5 °C 7.2 °C 1013.8 hPa WNW 2.6 km/h 6.1 km/h 75% 0.0 mm 0 W/m2
01:31 11.6 °C 7.1 °C 1013.8 hPa WNW 1.1 km/h 6.1 km/h 74% 0.0 mm 0 W/m2
01:36 11.4 °C 6.9 °C 1013.8 hPa WNW 1.1 km/h 5.0 km/h 74% 0.0 mm 0 W/m2
01:41 11.3 °C 6.8 °C 1013.8 hPa Calm   3.5 km/h 74% 0.0 mm 0 W/m2
01:46 11.1 °C 6.8 °C 1013.8 hPa Calm   3.5 km/h 75% 0.0 mm 0 W/m2
01:51 11.1 °C 6.8 °C 1013.8 hPa WNW 1.1 km/h 3.5 km/h 75% 0.0 mm 0 W/m2
01:56 11.1 °C 6.8 °C 1013.8 hPa Calm   3.5 km/h 75% 0.0 mm 0 W/m2
02:01 10.9 °C 6.8 °C 1013.8 hPa NNW 2.6 km/h 5.0 km/h 76% 0.0 mm 0 W/m2
02:06 10.7 °C 6.8 °C 1013.8 hPa NW 2.6 km/h 5.0 km/h 77% 0.0 mm 0 W/m2
02:11 10.4 °C 6.6 °C 1013.8 hPa Calm   5.0 km/h 77% 0.0 mm 0 W/m2
02:16 10.2 °C 6.3 °C 1013.4 hPa WNW 3.5 km/h 6.1 km/h 77% 0.0 mm 0 W/m2
02:21 10.1 °C 6.4 °C 1013.4 hPa WNW 5.0 km/h 7.2 km/h 78% 0.0 mm 0 W/m2
02:26 10.2 °C 6.7 °C 1013.4 hPa WNW 3.5 km/h 8.7 km/h 79% 0.0 mm 0 W/m2
02:31 10.2 °C 6.9 °C 1013.1 hPa NW 5.0 km/h 8.7 km/h 80% 0.0 mm 0 W/m2
02:36 10.1 °C 6.8 °C 1013.4 hPa NW 2.6 km/h 7.2 km/h 80% 0.0 mm 0 W/m2
02:41 9.9 °C 6.8 °C 1013.1 hPa NNW 2.6 km/h 6.1 km/h 81% 0.0 mm 0 W/m2
02:46 9.7 °C 6.8 °C 1013.1 hPa Calm   5.0 km/h 82% 0.0 mm 0 W/m2
02:51 9.3 °C 6.6 °C 1012.8 hPa Calm   3.5 km/h 83% 0.0 mm 0 W/m2
02:56 9.0 °C 6.3 °C 1012.8 hPa NE 1.1 km/h 3.5 km/h 83% 0.0 mm 0 W/m2
03:01 9.0 °C 6.4 °C 1012.8 hPa Calm   6.1 km/h 84% 0.0 mm 0 W/m2
03:06 9.0 °C 6.4 °C 1012.8 hPa NE 1.1 km/h 6.1 km/h 84% 0.0 mm 0 W/m2
03:11 9.2 °C 6.8 °C 1012.8 hPa Calm   3.5 km/h 85% 0.0 mm 0 W/m2
03:16 9.3 °C 6.7 °C 1012.8 hPa Calm   3.5 km/h 84% 0.0 mm 0 W/m2
03:21 9.3 °C 6.7 °C 1012.4 hPa NW 2.6 km/h 3.5 km/h 84% 0.0 mm 0 W/m2
03:26 9.5 °C 6.9 °C 1012.1 hPa NNW 2.6 km/h 5.0 km/h 84% 0.0 mm 0 W/m2
03:31 9.9 °C 7.3 °C 1012.4 hPa NNW 3.5 km/h 6.1 km/h 84% 0.0 mm 0 W/m2
03:36 10.3 °C 7.4 °C 1012.1 hPa North 3.5 km/h 8.7 km/h 82% 0.0 mm 0 W/m2
03:41 10.8 °C 7.5 °C 1012.1 hPa North 5.0 km/h 13.4 km/h 80% 0.0 mm 0 W/m2
03:46 11.5 °C 7.4 °C 1012.1 hPa North 9.7 km/h 13.4 km/h 76% 0.0 mm 0 W/m2
03:51 12.1 °C 7.2 °C 1012.4 hPa North 11.1 km/h 18.3 km/h 72% 0.0 mm 0 W/m2
03:56 12.4 °C 7.3 °C 1012.1 hPa North 5.0 km/h 18.3 km/h 71% 0.0 mm 0 W/m2
04:01 12.4 °C 7.1 °C 1012.1 hPa North 3.5 km/h 15.8 km/h 70% 0.0 mm 0 W/m2
04:06 12.6 °C 7.1 °C 1012.1 hPa North 7.2 km/h 20.9 km/h 69% 0.0 mm 0 W/m2
04:12 12.4 °C 6.9 °C 1011.7 hPa North 6.1 km/h 20.9 km/h 69% 0.0 mm 0 W/m2
04:17 12.5 °C 6.9 °C 1012.1 hPa North 5.0 km/h 15.8 km/h 69% 0.0 mm 0 W/m2
04:22 12.5 °C 6.8 °C 1011.7 hPa NNW 6.1 km/h 15.8 km/h 68% 0.0 mm 0 W/m2
04:27 12.6 °C 6.6 °C 1011.4 hPa NNE 6.1 km/h 14.8 km/h 67% 0.0 mm 0 W/m2
04:32 12.6 °C 6.6 °C 1011.4 hPa NNE 5.0 km/h 14.8 km/h 67% 0.0 mm 0 W/m2
04:37 12.4 °C 6.7 °C 1011.7 hPa NNW 6.1 km/h 12.2 km/h 68% 0.0 mm 0 W/m2
04:42 12.2 °C 6.7 °C 1011.7 hPa North 5.0 km/h 13.4 km/h 69% 0.0 mm 0 W/m2
04:47 12.0 °C 6.5 °C 1011.7 hPa NNE 11.1 km/h 17.2 km/h 69% 0.0 mm 0 W/m2
04:52 12.1 °C 6.6 °C 1011.4 hPa North 3.5 km/h 17.2 km/h 69% 0.0 mm 0 W/m2
04:57 12.0 °C 6.7 °C 1011.4 hPa North 8.7 km/h 17.2 km/h 70% 0.0 mm 0 W/m2
05:02 12.3 °C 6.8 °C 1011.4 hPa NNE 8.7 km/h 17.2 km/h 69% 0.0 mm 0 W/m2
05:07 12.5 °C 6.6 °C 1011.4 hPa NE 7.2 km/h 20.9 km/h 67% 0.0 mm 0 W/m2
05:12 12.6 °C 6.6 °C 1011.4 hPa NNE 8.7 km/h 20.9 km/h 67% 0.0 mm 0 W/m2
05:17 12.6 °C 6.4 °C 1011.1 hPa NNW 8.7 km/h 21.9 km/h 66% 0.0 mm 0 W/m2
05:22 13.0 °C 6.8 °C 1011.4 hPa North 9.7 km/h 24.5 km/h 66% 0.0 mm 0 W/m2
05:27 13.2 °C 6.8 °C 1011.1 hPa North 15.8 km/h 28.0 km/h 65% 0.0 mm 0 W/m2
05:32 13.4 °C 6.7 °C 1011.1 hPa North 17.2 km/h 28.0 km/h 64% 0.0 mm 0 W/m2
05:37 13.5 °C 6.4 °C 1010.7 hPa NNE 9.7 km/h 25.6 km/h 62% 0.0 mm 0 W/m2
05:42 13.5 °C 6.4 °C 1010.7 hPa North 15.8 km/h 25.6 km/h 62% 0.0 mm 0 W/m2
05:47 13.7 °C 6.6 °C 1010.7 hPa North 13.4 km/h 25.6 km/h 62% 0.0 mm 0 W/m2
05:52 13.7 °C 6.6 °C 1010.7 hPa NNE 8.7 km/h 25.6 km/h 62% 0.0 mm 0 W/m2
05:57 13.7 °C 6.6 °C 1011.1 hPa NNE 8.7 km/h 21.9 km/h 62% 0.0 mm 0 W/m2
06:02 13.8 °C 6.7 °C 1011.1 hPa NNE 6.1 km/h 20.9 km/h 62% 0.0 mm 0 W/m2
06:07 13.6 °C 6.4 °C 1011.1 hPa NNE 5.0 km/h 19.5 km/h 62% 0.0 mm 0 W/m2
06:12 13.5 °C 6.6 °C 1010.7 hPa NNE 5.0 km/h 19.5 km/h 63% 0.0 mm 0 W/m2
06:17 13.4 °C 6.7 °C 1010.7 hPa NNE 6.1 km/h 18.3 km/h 64% 0.0 mm 0 W/m2
06:22 13.3 °C 6.6 °C 1010.7 hPa NNE 7.2 km/h 14.8 km/h 64% 0.0 mm 0 W/m2
06:27 13.3 °C 6.9 °C 1010.7 hPa NE 8.7 km/h 14.8 km/h 65% 0.0 mm 0 W/m2
06:32 13.2 °C 6.8 °C 1011.1 hPa NNE 6.1 km/h 15.8 km/h 65% 0.0 mm 0 W/m2
06:37 13.1 °C 6.7 °C 1010.7 hPa North 2.6 km/h 15.8 km/h 65% 0.0 mm 0 W/m2
06:42 13.0 °C 6.6 °C 1010.7 hPa North 2.6 km/h 11.1 km/h 65% 0.0 mm 0 W/m2
06:47 13.0 °C 6.6 °C 1010.7 hPa North 11.1 km/h 17.2 km/h 65% 0.0 mm 0 W/m2
06:52 13.1 °C 6.7 °C 1010.4 hPa North 5.0 km/h 20.9 km/h 65% 0.0 mm 0 W/m2
06:57 13.1 °C 6.7 °C 1010.7 hPa North 6.1 km/h 20.9 km/h 65% 0.0 mm 0 W/m2
07:02 13.2 °C 6.8 °C 1010.7 hPa NNE 5.0 km/h 14.8 km/h 65% 0.0 mm 2 W/m2
07:07 13.3 °C 6.9 °C 1010.7 hPa NNE 3.5 km/h 11.1 km/h 65% 0.0 mm 4 W/m2
07:12 13.3 °C 6.6 °C 1010.4 hPa NNE 8.7 km/h 12.2 km/h 64% 0.0 mm 5 W/m2
07:17 13.4 °C 6.7 °C 1010.4 hPa NNE 9.7 km/h 13.4 km/h 64% 0.0 mm 17 W/m2
07:20 13.5 °C 6.6 °C 1010.4 hPa North 9.7 km/h 17.2 km/h 63% 0.0 mm 24 W/m2
07:25 13.6 °C 6.7 °C 1010.4 hPa North 7.2 km/h 17.2 km/h 63% 0.0 mm 40 W/m2
07:30 13.8 °C 6.9 °C 1010.4 hPa North 7.2 km/h 14.8 km/h 63% 0.0 mm 53 W/m2
07:35 13.8 °C 6.9 °C 1010.0 hPa NNW 6.1 km/h 14.8 km/h 63% 0.0 mm 33 W/m2
07:41 13.6 °C 6.7 °C 1010.0 hPa North 3.5 km/h 13.4 km/h 63% 0.0 mm 22 W/m2
08:01 13.6 °C 6.9 °C 1010.4 hPa NNE 2.6 km/h 9.7 km/h 64% 0.0 mm 46 W/m2
08:06 13.6 °C 6.9 °C 1010.4 hPa NNE 2.6 km/h 8.7 km/h 64% 0.0 mm 50 W/m2
08:11 13.6 °C 6.9 °C 1010.4 hPa NNE 2.6 km/h 6.1 km/h 64% 0.0 mm 58 W/m2
08:16 13.6 °C 7.2 °C 1010.0 hPa NE 3.5 km/h 6.1 km/h 65% 0.0 mm 65 W/m2
08:21 13.8 °C 7.3 °C 1010.0 hPa NE 1.1 km/h 5.0 km/h 65% 0.0 mm 75 W/m2
08:26 14.0 °C 7.3 °C 1010.0 hPa NE 1.1 km/h 5.0 km/h 64% 0.0 mm 85 W/m2
08:31 14.2 °C 7.3 °C 1010.0 hPa North 6.1 km/h 9.7 km/h 63% 0.0 mm 95 W/m2
08:36 14.4 °C 7.4 °C 1010.0 hPa North 5.0 km/h 11.1 km/h 63% 0.0 mm 149 W/m2
08:41 14.7 °C 7.7 °C 1010.0 hPa NNE 7.2 km/h 11.1 km/h 63% 0.0 mm 186 W/m2
08:46 15.2 °C 7.5 °C 1010.0 hPa North 6.1 km/h 11.1 km/h 60% 0.0 mm 234 W/m2
08:51 16.0 °C 7.2 °C 1010.0 hPa North 9.7 km/h 12.2 km/h 56% 0.0 mm 281 W/m2
08:56 16.4 °C 7.3 °C 1009.7 hPa North 11.1 km/h 15.8 km/h 55% 0.0 mm 267 W/m2
09:01 16.6 °C 7.3 °C 1009.7 hPa North 9.7 km/h 15.8 km/h 54% 0.0 mm 278 W/m2
09:06 16.6 °C 7.3 °C 1010.0 hPa North 9.7 km/h 15.8 km/h 54% 0.0 mm 289 W/m2
09:11 16.5 °C 7.2 °C 1010.0 hPa NNW 5.0 km/h 15.8 km/h 54% 0.0 mm 283 W/m2
09:16 16.6 °C 7.3 °C 1010.0 hPa NNW 8.7 km/h 15.8 km/h 54% 0.0 mm 303 W/m2
09:21 16.8 °C 7.4 °C 1010.0 hPa North 8.7 km/h 15.8 km/h 54% 0.0 mm 298 W/m2
09:26 17.2 °C 7.3 °C 1010.0 hPa North 5.0 km/h 15.8 km/h 52% 0.0 mm 314 W/m2
09:31 17.4 °C 7.2 °C 1010.0 hPa North 5.0 km/h 18.3 km/h 51% 0.0 mm 315 W/m2
09:36 17.5 °C 7.3 °C 1009.7 hPa NNW 9.7 km/h 18.3 km/h 51% 0.0 mm 278 W/m2
09:41 17.3 °C 7.1 °C 1009.7 hPa North 12.2 km/h 19.5 km/h 51% 0.0 mm 263 W/m2
09:46 17.3 °C 7.1 °C 1009.7 hPa NNE 8.7 km/h 19.5 km/h 51% 0.0 mm 248 W/m2
09:51 17.4 °C 7.2 °C 1009.7 hPa NNE 9.7 km/h 19.5 km/h 51% 0.0 mm 116 W/m2
09:56 17.4 °C 7.2 °C 1009.7 hPa North 11.1 km/h 21.9 km/h 51% 0.0 mm 99 W/m2
10:01 17.6 °C 7.1 °C 1009.4 hPa North 7.2 km/h 21.9 km/h 50% 0.0 mm 91 W/m2
10:06 17.9 °C 7.3 °C 1009.4 hPa North 14.8 km/h 21.9 km/h 50% 0.0 mm 88 W/m2
10:11 18.0 °C 7.1 °C 1009.7 hPa North 9.7 km/h 21.9 km/h 49% 0.0 mm 85 W/m2
10:16 17.9 °C 7.1 °C 1009.4 hPa North 9.7 km/h 19.5 km/h 49% 0.0 mm 87 W/m2
10:21 18.0 °C 6.8 °C 1009.4 hPa North 11.1 km/h 17.2 km/h 48% 0.0 mm 92 W/m2
10:26 18.3 °C 7.4 °C 1009.4 hPa North 9.7 km/h 17.2 km/h 49% 0.0 mm 100 W/m2
10:31 18.6 °C 7.1 °C 1009.4 hPa North 6.1 km/h 17.2 km/h 47% 0.0 mm 99 W/m2
10:36 18.1 °C 6.6 °C 1009.4 hPa North 15.8 km/h 20.9 km/h 47% 0.0 mm 172 W/m2
10:41 17.9 °C 6.1 °C 1009.4 hPa North 9.7 km/h 20.9 km/h 46% 0.0 mm 340 W/m2
10:46 18.7 °C 6.8 °C 1009.4 hPa North 11.1 km/h 20.9 km/h 46% 0.0 mm 418 W/m2
10:51 19.1 °C 7.2 °C 1009.4 hPa North 17.2 km/h 20.9 km/h 46% 0.0 mm 300 W/m2
10:56 19.0 °C 6.8 °C 1009.4 hPa NNW 11.1 km/h 24.5 km/h 45% 0.0 mm 160 W/m2
11:01 18.0 °C 5.9 °C 1009.4 hPa NNW 14.8 km/h 24.5 km/h 45% 0.0 mm 145 W/m2
11:06 17.7 °C 6.8 °C 1009.4 hPa NNW 13.4 km/h 24.5 km/h 49% 0.0 mm 158 W/m2
11:11 17.6 °C 6.4 °C 1009.4 hPa NNW 12.2 km/h 21.9 km/h 48% 0.0 mm 187 W/m2
11:16 17.9 °C 6.4 °C 1009.4 hPa NNW 8.7 km/h 21.9 km/h 47% 0.0 mm 192 W/m2
11:21 18.5 °C 7.0 °C 1009.4 hPa NNW 11.1 km/h 20.9 km/h 47% 0.0 mm 364 W/m2
11:26 19.0 °C 6.8 °C 1009.4 hPa North 5.0 km/h 17.2 km/h 45% 0.0 mm 466 W/m2
11:31 19.5 °C 7.3 °C 1009.4 hPa NNE 8.7 km/h 20.9 km/h 45% 0.0 mm 434 W/m2
11:36 19.3 °C 7.4 °C 1009.4 hPa NE 6.1 km/h 20.9 km/h 46% 0.0 mm 232 W/m2
11:41 18.6 °C 7.4 °C 1009.0 hPa NNE 5.0 km/h 17.2 km/h 48% 0.0 mm 176 W/m2
11:46 18.1 °C 6.6 °C 1009.4 hPa NNW 3.5 km/h 15.8 km/h 47% 0.0 mm 174 W/m2
11:51 18.0 °C 6.8 °C 1009.4 hPa NNW 8.7 km/h 15.8 km/h 48% 0.0 mm 163 W/m2
11:56 17.9 °C 7.3 °C 1009.0 hPa North 6.1 km/h 13.4 km/h 50% 0.0 mm 180 W/m2
12:01 17.9 °C 6.4 °C 1009.0 hPa NNW 9.7 km/h 18.3 km/h 47% 0.0 mm 183 W/m2
12:06 17.8 °C 6.7 °C 1009.0 hPa NNW 7.2 km/h 18.3 km/h 48% 0.0 mm 167 W/m2
12:11 18.0 °C 7.1 °C 1008.7 hPa North 7.2 km/h 14.8 km/h 49% 0.0 mm 158 W/m2
12:16 18.0 °C 6.2 °C 1008.7 hPa NW 12.2 km/h 21.9 km/h 46% 0.0 mm 148 W/m2
12:21 18.0 °C 6.2 °C 1008.7 hPa NW 19.5 km/h 28.0 km/h 46% 0.0 mm 153 W/m2
12:26 18.5 °C 6.7 °C 1008.7 hPa NNW 24.5 km/h 29.4 km/h 46% 0.0 mm 411 W/m2
12:31 19.4 °C 6.8 °C 1008.7 hPa NNW 15.8 km/h 29.4 km/h 44% 0.0 mm 430 W/m2
12:36 19.4 °C 6.5 °C 1008.4 hPa NW 12.2 km/h 29.4 km/h 43% 0.0 mm 389 W/m2
12:41 19.4 °C 6.8 °C 1008.4 hPa NW 15.8 km/h 24.5 km/h 44% 0.0 mm 398 W/m2
12:46 19.5 °C 6.3 °C 1008.4 hPa NW 12.2 km/h 21.9 km/h 42% 0.0 mm 295 W/m2
12:50 19.2 °C 6.0 °C 1008.4 hPa NW 5.0 km/h 20.9 km/h 42% 0.0 mm 241 W/m2
12:55 18.9 °C 6.7 °C 1008.4 hPa NW 6.1 km/h 19.5 km/h 45% 0.0 mm 251 W/m2
13:00 18.9 °C 6.7 °C 1008.0 hPa NW 3.5 km/h 14.8 km/h 45% 0.0 mm 236 W/m2
13:05 19.3 °C 7.1 °C 1008.0 hPa NW 1.1 km/h 12.2 km/h 45% 0.0 mm 297 W/m2
13:10 19.7 °C 7.4 °C 1008.0 hPa NW 7.2 km/h 9.7 km/h 45% 0.0 mm 335 W/m2
13:15 19.6 °C 7.0 °C 1007.7 hPa NW 13.4 km/h 25.6 km/h 44% 0.0 mm 287 W/m2
13:20 19.4 °C 7.2 °C 1007.7 hPa NNW 9.7 km/h 25.6 km/h 45% 0.0 mm 291 W/m2
13:25 19.1 °C 6.9 °C 1007.7 hPa NW 11.1 km/h 25.6 km/h 45% 0.0 mm 137 W/m2
13:30 18.6 °C 7.4 °C 1007.7 hPa NW 12.2 km/h 25.6 km/h 48% 0.0 mm 142 W/m2
13:35 18.1 °C 7.5 °C 1008.0 hPa NNW 12.2 km/h 27.0 km/h 50% 0.0 mm 134 W/m2
13:40 18.0 °C 8.0 °C 1007.7 hPa NNW 8.7 km/h 27.0 km/h 52% 0.0 mm 132 W/m2
13:45 18.1 °C 8.4 °C 1007.7 hPa NNW 11.1 km/h 20.9 km/h 53% 0.0 mm 213 W/m2
13:50 18.5 °C 8.7 °C 1007.7 hPa NNW 13.4 km/h 21.9 km/h 53% 0.0 mm 207 W/m2
13:55 18.5 °C 8.7 °C 1007.7 hPa NNW 15.8 km/h 24.5 km/h 53% 0.0 mm 154 W/m2
14:00 18.2 °C 8.4 °C 1007.3 hPa NNW 11.1 km/h 24.5 km/h 53% 0.0 mm 152 W/m2
14:05 17.9 °C 8.4 °C 1007.3 hPa NNW 20.9 km/h 31.7 km/h 54% 0.0 mm 140 W/m2
14:10 17.6 °C 8.4 °C 1007.3 hPa NNW 11.1 km/h 31.7 km/h 55% 0.0 mm 127 W/m2
14:15 17.4 °C 8.6 °C 1007.3 hPa NW 15.8 km/h 31.7 km/h 56% 0.0 mm 122 W/m2
14:20 17.3 °C 8.2 °C 1007.3 hPa NNW 18.3 km/h 30.6 km/h 55% 0.0 mm 115 W/m2
14:25 17.2 °C 8.3 °C 1007.3 hPa NNW 19.5 km/h 30.6 km/h 56% 0.0 mm 107 W/m2
14:30 17.0 °C 8.2 °C 1007.3 hPa NNW 23.3 km/h 29.4 km/h 56% 0.0 mm 95 W/m2
14:35 17.0 °C 7.9 °C 1007.3 hPa NW 19.5 km/h 33.1 km/h 55% 0.0 mm 82 W/m2
14:40 16.9 °C 8.3 °C 1007.3 hPa NNW 15.8 km/h 33.1 km/h 57% 0.0 mm 82 W/m2
14:45 16.9 °C 8.3 °C 1007.3 hPa NNW 9.7 km/h 30.6 km/h 57% 0.0 mm 88 W/m2
14:50 16.9 °C 8.6 °C 1007.0 hPa NNW 9.7 km/h 24.5 km/h 58% 0.0 mm 91 W/m2
14:55 16.9 °C 8.6 °C 1007.0 hPa NNW 12.2 km/h 19.5 km/h 58% 0.0 mm 86 W/m2
15:00 16.9 °C 8.6 °C 1007.0 hPa NNW 7.2 km/h 19.5 km/h 58% 0.0 mm 73 W/m2
15:05 17.0 °C 7.9 °C 1007.0 hPa North 3.5 km/h 19.5 km/h 55% 0.0 mm 72 W/m2
15:10 17.1 °C 8.3 °C 1007.0 hPa NNE 8.7 km/h 12.2 km/h 56% 0.0 mm 71 W/m2
15:15 17.2 °C 8.1 °C 1007.0 hPa NNE 2.6 km/h 12.2 km/h 55% 0.0 mm 75 W/m2
15:20 17.3 °C 8.2 °C 1007.0 hPa Calm   12.2 km/h 55% 0.0 mm 79 W/m2
15:25 17.5 °C 8.4 °C 1007.0 hPa NNE 1.1 km/h 7.2 km/h 55% 0.0 mm 84 W/m2
15:30 17.5 °C 8.4 °C 1007.0 hPa North 2.6 km/h 6.1 km/h 55% 0.0 mm 87 W/m2
15:35 17.6 °C 8.7 °C 1007.0 hPa NNE 2.6 km/h 6.1 km/h 56% 0.0 mm 85 W/m2
15:40 17.6 °C 8.7 °C 1006.7 hPa ENE 5.0 km/h 6.1 km/h 56% 0.0 mm 80 W/m2
15:45 17.3 °C 8.7 °C 1006.7 hPa ENE 5.0 km/h 8.7 km/h 57% 0.0 mm 79 W/m2
15:48 17.2 °C 8.9 °C 1007.0 hPa East 3.5 km/h 8.7 km/h 58% 0.0 mm 79 W/m2
15:51 17.1 °C 9.1 °C 1006.7 hPa East 5.0 km/h 8.7 km/h 59% 0.0 mm 79 W/m2
15:56 16.9 °C 9.3 °C 1007.0 hPa East 5.0 km/h 9.7 km/h 61% 0.0 mm 72 W/m2
16:01 16.7 °C 9.4 °C 1006.7 hPa ESE 2.6 km/h 9.7 km/h 62% 0.0 mm 74 W/m2
16:06 16.9 °C 9.6 °C 1006.7 hPa ESE 7.2 km/h 8.7 km/h 62% 0.0 mm 71 W/m2
16:11 16.7 °C 9.4 °C 1006.7 hPa East 2.6 km/h 11.1 km/h 62% 0.0 mm 63 W/m2
16:16 16.7 °C 9.4 °C 1006.7 hPa East 3.5 km/h 11.1 km/h 62% 0.0 mm 56 W/m2
16:21 16.7 °C 9.4 °C 1006.7 hPa East 1.1 km/h 7.2 km/h 62% 0.0 mm 47 W/m2
16:26 16.7 °C 9.2 °C 1006.7 hPa ENE 1.1 km/h 6.1 km/h 61% 0.0 mm 45 W/m2
16:31 17.0 °C 8.2 °C 1007.0 hPa NNW 13.4 km/h 18.3 km/h 56% 0.0 mm 41 W/m2
16:36 17.1 °C 7.2 °C 1007.0 hPa North 9.7 km/h 24.5 km/h 52% 0.0 mm 60 W/m2
16:41 17.2 °C 7.0 °C 1007.0 hPa North 11.1 km/h 25.6 km/h 51% 0.0 mm 59 W/m2
16:46 17.2 °C 7.3 °C 1006.7 hPa NNW 14.8 km/h 29.4 km/h 52% 0.0 mm 50 W/m2
16:51 17.1 °C 7.2 °C 1007.0 hPa NNW 12.2 km/h 29.4 km/h 52% 0.0 mm 37 W/m2
16:56 17.0 °C 7.3 °C 1006.7 hPa NW 13.4 km/h 21.9 km/h 53% 0.0 mm 28 W/m2
17:01 16.9 °C 7.6 °C 1006.7 hPa NW 5.0 km/h 20.9 km/h 54% 0.0 mm 19 W/m2
17:06 16.7 °C 7.6 °C 1007.0 hPa NNW 7.2 km/h 18.3 km/h 55% 0.0 mm 13 W/m2
17:11 16.7 °C 7.6 °C 1007.0 hPa NNW 8.7 km/h 15.8 km/h 55% 0.0 mm 7 W/m2
17:16 16.7 °C 7.6 °C 1007.0 hPa NNW 5.0 km/h 15.8 km/h 55% 0.0 mm 4 W/m2
17:21 16.7 °C 7.6 °C 1006.7 hPa North 5.0 km/h 15.8 km/h 55% 0.0 mm 2 W/m2
17:26 16.5 °C 7.7 °C 1006.7 hPa NNE 5.0 km/h 12.2 km/h 56% 0.0 mm 0 W/m2
17:31 16.3 °C 7.8 °C 1006.7 hPa NNE 2.6 km/h 8.7 km/h 57% 0.0 mm 0 W/m2
17:36 16.2 °C 7.9 °C 1006.7 hPa NE 1.1 km/h 8.7 km/h 58% 0.0 mm 0 W/m2
17:41 16.1 °C 7.8 °C 1006.7 hPa NNE 2.6 km/h 9.7 km/h 58% 0.0 mm 0 W/m2
17:46 16.0 °C 8.0 °C 1007.0 hPa NNE 1.1 km/h 9.7 km/h 59% 0.0 mm 0 W/m2
17:51 16.0 °C 8.0 °C 1006.7 hPa NNE 2.6 km/h 7.2 km/h 59% 0.0 mm 0 W/m2
17:56 15.9 °C 8.4 °C 1007.0 hPa North 3.5 km/h 7.2 km/h 61% 0.0 mm 0 W/m2
18:01 15.9 °C 8.4 °C 1007.0 hPa NNE 2.6 km/h 7.2 km/h 61% 0.0 mm 0 W/m2
18:06 15.8 °C 8.6 °C 1007.0 hPa Calm   7.2 km/h 62% 0.0 mm 0 W/m2
18:11 15.6 °C 8.6 °C 1007.0 hPa NE 1.1 km/h 7.2 km/h 63% 0.0 mm 0 W/m2
18:16 15.6 °C 8.6 °C 1007.0 hPa ENE 1.1 km/h 7.2 km/h 63% 0.0 mm 0 W/m2
18:21 15.5 °C 8.7 °C 1007.0 hPa NE 5.0 km/h 7.2 km/h 64% 0.0 mm 0 W/m2
18:26 15.6 °C 8.8 °C 1007.3 hPa NE 3.5 km/h 8.7 km/h 64% 0.0 mm 0 W/m2
18:31 15.7 °C 9.2 °C 1007.3 hPa NE 5.0 km/h 8.7 km/h 65% 0.0 mm 0 W/m2
18:36 15.7 °C 9.2 °C 1007.3 hPa NNE 3.5 km/h 11.1 km/h 65% 0.0 mm 0 W/m2
18:41 15.8 °C 9.2 °C 1007.3 hPa NNE 2.6 km/h 14.8 km/h 65% 0.0 mm 0 W/m2
18:46 15.7 °C 9.2 °C 1007.3 hPa NNE 8.7 km/h 14.8 km/h 65% 0.0 mm 0 W/m2
18:51 15.8 °C 9.2 °C 1007.3 hPa North 7.2 km/h 12.2 km/h 65% 0.0 mm 0 W/m2
18:56 15.8 °C 9.2 °C 1007.3 hPa NNE 9.7 km/h 17.2 km/h 65% 0.0 mm 0 W/m2
19:01 15.8 °C 9.2 °C 1007.3 hPa NNE 7.2 km/h 17.2 km/h 65% 0.0 mm 0 W/m2
19:06 15.8 °C 9.2 °C 1007.3 hPa NNE 5.0 km/h 14.8 km/h 65% 0.0 mm 0 W/m2
19:11 15.8 °C 9.2 °C 1007.3 hPa NNE 5.0 km/h 14.8 km/h 65% 0.0 mm 0 W/m2
19:16 15.8 °C 9.4 °C 1007.3 hPa NNE 3.5 km/h 15.8 km/h 66% 0.0 mm 0 W/m2
19:21 15.7 °C 9.4 °C 1007.3 hPa NNE 2.6 km/h 15.8 km/h 66% 0.0 mm 0 W/m2
19:26 15.6 °C 9.3 °C 1007.3 hPa NE 5.0 km/h 12.2 km/h 66% 0.0 mm 0 W/m2
19:31 15.4 °C 9.3 °C 1007.3 hPa ENE 3.5 km/h 12.2 km/h 67% 0.0 mm 0 W/m2
19:36 15.3 °C 9.2 °C 1007.3 hPa NE 6.1 km/h 12.2 km/h 67% 0.0 mm 0 W/m2
19:41 15.2 °C 9.3 °C 1007.3 hPa NE 6.1 km/h 11.1 km/h 68% 0.0 mm 0 W/m2
19:46 15.2 °C 9.3 °C 1007.3 hPa ENE 8.7 km/h 13.4 km/h 68% 0.0 mm 0 W/m2
19:51 15.1 °C 9.4 °C 1007.3 hPa ENE 6.1 km/h 13.4 km/h 69% 0.0 mm 0 W/m2
19:57 15.1 °C 9.4 °C 1007.3 hPa ENE 5.0 km/h 11.1 km/h 69% 0.0 mm 0 W/m2
20:02 15.0 °C 9.6 °C 1007.3 hPa NE 7.2 km/h 11.1 km/h 70% 0.0 mm 0 W/m2
20:07 15.0 °C 9.6 °C 1007.3 hPa NE 6.1 km/h 9.7 km/h 70% 0.0 mm 0 W/m2
20:12 14.9 °C 9.9 °C 1007.7 hPa NE 7.2 km/h 12.2 km/h 72% 0.0 mm 0 W/m2
20:17 14.9 °C 9.9 °C 1007.3 hPa NE 7.2 km/h 12.2 km/h 72% 0.0 mm 0 W/m2
20:22 14.9 °C 9.9 °C 1007.7 hPa NE 7.2 km/h 15.8 km/h 72% 0.0 mm 0 W/m2
20:27 14.8 °C 9.8 °C 1007.3 hPa NE 6.1 km/h 15.8 km/h 72% 0.0 mm 0 W/m2
20:32 14.6 °C 9.8 °C 1007.3 hPa NE 6.1 km/h 12.2 km/h 73% 0.0 mm 0 W/m2
20:38 14.5 °C 9.9 °C 1007.3 hPa NE 6.1 km/h 11.1 km/h 74% 0.0 mm 0 W/m2
20:43 14.5 °C 9.9 °C 1007.3 hPa Calm   11.1 km/h 74% 0.0 mm 0 W/m2
20:48 14.4 °C 9.8 °C 1007.3 hPa Calm   8.7 km/h 74% 0.0 mm 0 W/m2
20:53 14.4 °C 9.8 °C 1007.3 hPa NNE 1.1 km/h 7.2 km/h 74% 0.0 mm 0 W/m2
21:14 14.2 °C 9.8 °C 1007.7 hPa NW 2.6 km/h 8.7 km/h 75% 0.0 mm 0 W/m2
21:19 13.9 °C 9.7 °C 1007.7 hPa WNW 2.6 km/h 5.0 km/h 76% 0.0 mm 0 W/m2
21:24 13.7 °C 9.7 °C 1007.7 hPa West 3.5 km/h 6.1 km/h 77% 0.0 mm 0 W/m2
21:29 13.6 °C 9.7 °C 1007.7 hPa West 3.5 km/h 7.2 km/h 77% 0.0 mm 0 W/m2
21:34 13.5 °C 9.7 °C 1007.7 hPa West 6.1 km/h 11.1 km/h 78% 0.0 mm 0 W/m2
21:39 13.7 °C 9.9 °C 1007.3 hPa NW 8.7 km/h 13.4 km/h 78% 0.0 mm 0 W/m2
21:44 14.1 °C 10.1 °C 1007.0 hPa NNW 12.2 km/h 14.8 km/h 77% 0.0 mm 0 W/m2
21:49 14.3 °C 10.1 °C 1007.0 hPa NW 11.1 km/h 17.2 km/h 76% 0.0 mm 0 W/m2
21:54 14.4 °C 10.1 °C 1007.0 hPa NW 8.7 km/h 17.2 km/h 75% 0.0 mm 0 W/m2
21:59 14.4 °C 10.1 °C 1007.0 hPa NW 9.7 km/h 18.3 km/h 75% 0.0 mm 0 W/m2
22:04 14.4 °C 10.2 °C 1006.7 hPa NW 9.7 km/h 19.5 km/h 76% 0.0 mm 0 W/m2
22:09 14.4 °C 10.4 °C 1006.7 hPa NW 7.2 km/h 19.5 km/h 77% 0.0 mm 0 W/m2
22:14 14.2 °C 10.4 °C 1006.7 hPa NW 8.7 km/h 15.8 km/h 78% 0.0 mm 0 W/m2
22:19 14.1 °C 10.3 °C 1006.7 hPa NW 9.7 km/h 14.8 km/h 78% 0.0 mm 0 W/m2
22:24 13.9 °C 10.3 °C 1006.7 hPa NNW 7.2 km/h 14.8 km/h 79% 0.0 mm 0 W/m2
22:29 13.6 °C 10.1 °C 1006.3 hPa NW 7.2 km/h 15.8 km/h 79% 0.0 mm 0 W/m2
22:34 13.6 °C 10.1 °C 1006.3 hPa NW 7.2 km/h 17.2 km/h 79% 0.0 mm 0 W/m2
22:39 13.6 °C 10.1 °C 1006.3 hPa NNW 8.7 km/h 17.2 km/h 79% 0.0 mm 0 W/m2
22:44 13.6 °C 10.1 °C 1006.0 hPa NNW 9.7 km/h 21.9 km/h 79% 0.0 mm 0 W/m2
22:49 13.6 °C 10.1 °C 1006.0 hPa North 9.7 km/h 21.9 km/h 79% 0.0 mm 0 W/m2
22:54 13.6 °C 10.1 °C 1006.3 hPa North 12.2 km/h 18.3 km/h 79% 0.0 mm 0 W/m2
22:59 13.8 °C 10.4 °C 1006.0 hPa North 11.1 km/h 18.3 km/h 80% 0.0 mm 0 W/m2
23:04 13.6 °C 10.2 °C 1006.0 hPa North 6.1 km/h 18.3 km/h 80% 0.0 mm 0 W/m2
23:09 13.6 °C 10.4 °C 1006.0 hPa North 8.7 km/h 15.8 km/h 81% 0.0 mm 0 W/m2
23:14 13.5 °C 10.5 °C 1006.0 hPa NNW 8.7 km/h 14.8 km/h 82% 0.0 mm 0 W/m2
23:19 13.4 °C 10.4 °C 1006.3 hPa NNW 5.0 km/h 14.8 km/h 82% 0.0 mm 0 W/m2
23:24 13.2 °C 10.4 °C 1006.3 hPa NNW 3.5 km/h 13.4 km/h 83% 0.0 mm 0 W/m2
23:29 13.0 °C 10.4 °C 1006.3 hPa NNW 3.5 km/h 9.7 km/h 84% 0.0 mm 0 W/m2
23:34 13.0 °C 10.4 °C 1006.3 hPa NNW 5.0 km/h 8.7 km/h 84% 0.0 mm 0 W/m2
23:39 13.0 °C 10.4 °C 1006.3 hPa North 5.0 km/h 8.7 km/h 84% 0.0 mm 0 W/m2
23:44 13.0 °C 10.4 °C 1006.3 hPa North 7.2 km/h 11.1 km/h 84% 0.0 mm 0 W/m2
23:49 13.1 °C 10.4 °C 1006.0 hPa NNE 6.1 km/h 12.2 km/h 84% 0.0 mm 0 W/m2
23:54 13.2 °C 10.4 °C 1006.0 hPa NNE 9.7 km/h 18.3 km/h 83% 0.0 mm 0 W/m2
23:59 13.5 °C 10.5 °C 1006.0 hPa NNE 8.7 km/h 18.3 km/h 82% 0.0 mm 0 W/m2
Northern Hawkes Bay. New Zealand Historic Data
Compliments of Weather Underground - 2.25 mb